Time;durP1;ratioP1;P1;durP2;ratioP2;P2;SDS_P1;SDS_P2;PMS_P1;PMS_P2;Temp;Humidity;BMP_temperature;BMP_pressure;BME280_temperature;BME280_humidity;BME280_pressure;Samples;Min_cycle;Max_cycle;Signal;HPM_P1;HPM_P2
2023/09/23 00:01:20;;;;;;;19.48;10.10;;;;;;;;;;5081173;28;20044;-74
2023/09/23 00:03:46;;;;;;;20.98;10.00;;;;;;;;;;5081048;28;20115;-72
2023/09/23 00:06:11;;;;;;;21.75;10.32;;;;;;;;;;5081802;28;20039;-74
2023/09/23 00:08:36;;;;;;;19.33;10.77;;;;;;;;;;5080446;28;20031;-72
2023/09/23 00:11:02;;;;;;;16.83;9.80;;;;;;;;;;5080768;28;20028;-71
2023/09/23 00:13:28;;;;;;;16.67;9.60;;;;;;;;;;5080639;28;20115;-74
2023/09/23 00:15:55;;;;;;;14.93;8.70;;;;;;;;;;5081597;28;20039;-75
2023/09/23 00:18:21;;;;;;;17.77;9.10;;;;;;;;;;5082316;28;20027;-71
2023/09/23 00:20:46;;;;;;;20.30;9.65;;;;;;;;;;5081460;28;20028;-72
2023/09/23 00:23:12;;;;;;;15.48;9.23;;;;;;;;;;5083034;28;20071;-73
2023/09/23 00:25:38;;;;;;;15.82;9.38;;;;;;;;;;5080306;28;20428;-73
2023/09/23 00:28:08;;;;;;;16.77;9.32;;;;;;;;;;5082265;28;20028;-73
2023/09/23 00:30:34;;;;;;;22.13;9.60;;;;;;;;;;5082096;28;20028;-74
2023/09/23 00:32:59;;;;;;;20.05;9.48;;;;;;;;;;5081648;28;20096;-73
2023/09/23 00:35:25;;;;;;;13.95;9.25;;;;;;;;;;5081223;28;20436;-73
2023/09/23 00:37:51;;;;;;;15.50;9.60;;;;;;;;;;5067067;28;20394;-73
2023/09/23 00:40:24;;;;;;;17.88;9.88;;;;;;;;;;5071273;28;20052;-73
2023/09/23 00:42:50;;;;;;;20.50;9.10;;;;;;;;;;5069012;28;20040;-75
2023/09/23 00:45:16;;;;;;;14.52;8.82;;;;;;;;;;5067447;28;20084;-76
2023/09/23 00:47:45;;;;;;;13.00;9.40;;;;;;;;;;5066670;28;20046;-73
2023/09/23 00:50:17;;;;;;;18.88;9.73;;;;;;;;;;5067522;28;20047;-74
2023/09/23 00:52:42;;;;;;;14.50;9.32;;;;;;;;;;5075669;28;20385;-73
2023/09/23 00:55:08;;;;;;;13.98;8.50;;;;;;;;;;5067675;28;20046;-75
2023/09/23 00:57:34;;;;;;;19.70;9.60;;;;;;;;;;5068231;28;20056;-71
2023/09/23 00:59:59;;;;;;;18.60;9.13;;;;;;;;;;5081625;28;20016;-74
2023/09/23 01:02:25;;;;;;;19.20;10.18;;;;;;;;;;5080959;28;20047;-72
2023/09/23 01:04:50;;;;;;;15.43;9.75;;;;;;;;;;5081250;28;20384;-74
2023/09/23 01:07:16;;;;;;;16.15;9.55;;;;;;;;;;5081271;28;20028;-72
2023/09/23 01:09:42;;;;;;;18.63;10.38;;;;;;;;;;5081263;28;20027;-74
2023/09/23 01:12:09;;;;;;;18.40;9.50;;;;;;;;;;5080475;28;20035;-72
2023/09/23 01:14:34;;;;;;;21.30;9.77;;;;;;;;;;5081327;28;20035;-72
2023/09/23 01:17:01;;;;;;;20.35;10.18;;;;;;;;;;5069647;28;20019;-72
2023/09/23 01:19:27;;;;;;;17.63;9.55;;;;;;;;;;5071433;28;20027;-73
2023/09/23 01:21:54;;;;;;;19.58;9.52;;;;;;;;;;5080016;28;20367;-73
2023/09/23 01:24:19;;;;;;;17.80;9.25;;;;;;;;;;5080348;28;20039;-73
2023/09/23 01:26:50;;;;;;;15.27;9.65;;;;;;;;;;5080091;28;20020;-73
2023/09/23 01:29:22;;;;;;;17.88;9.90;;;;;;;;;;5080799;28;20034;-73
2023/09/23 01:32:07;;;;;;;16.98;8.90;;;;;;;;;;5080249;28;20020;-72
2023/09/23 01:34:34;;;;;;;18.42;9.40;;;;;;;;;;5068789;28;20032;-73
2023/09/23 01:36:59;;;;;;;15.63;9.18;;;;;;;;;;5081127;28;20020;-73
2023/09/23 01:39:25;;;;;;;24.88;9.52;;;;;;;;;;5069503;28;20039;-72
2023/09/23 01:41:53;;;;;;;19.85;9.23;;;;;;;;;;5082240;28;20040;-74
2023/09/23 01:44:19;;;;;;;17.25;9.77;;;;;;;;;;5081290;28;20031;-73
2023/09/23 01:46:44;;;;;;;18.42;9.98;;;;;;;;;;5081168;28;20016;-74
2023/09/23 01:49:10;;;;;;;20.75;8.77;;;;;;;;;;5080750;28;20119;-74
2023/09/23 01:51:35;;;;;;;15.98;9.57;;;;;;;;;;5080723;28;20056;-73
2023/09/23 01:54:00;;;;;;;17.15;9.25;;;;;;;;;;5083037;28;20062;-73
2023/09/23 01:56:26;;;;;;;19.38;8.98;;;;;;;;;;5081971;28;20114;-73
2023/09/23 01:58:51;;;;;;;17.98;9.68;;;;;;;;;;5074354;28;20371;-76
2023/09/23 02:01:16;;;;;;;17.48;9.43;;;;;;;;;;5083236;28;20740;-75
2023/09/23 02:03:42;;;;;;;16.95;9.43;;;;;;;;;;5070072;28;20067;-74
2023/09/23 02:06:07;;;;;;;18.08;9.85;;;;;;;;;;5083747;28;20085;-71
2023/09/23 02:08:32;;;;;;;20.63;9.15;;;;;;;;;;5083691;28;20039;-73
2023/09/23 02:10:58;;;;;;;22.60;9.48;;;;;;;;;;5084107;28;20415;-74
2023/09/23 02:13:23;;;;;;;13.30;8.60;;;;;;;;;;5083963;28;20414;-74
2023/09/23 02:15:49;;;;;;;20.50;9.57;;;;;;;;;;5084062;28;20028;-73
2023/09/23 02:18:15;;;;;;;19.23;9.57;;;;;;;;;;5083888;28;20020;-73
2023/09/23 02:20:40;;;;;;;17.98;9.00;;;;;;;;;;5082580;28;20430;-74
2023/09/23 02:23:06;;;;;;;20.70;9.27;;;;;;;;;;5085239;28;20100;-73
2023/09/23 02:25:31;;;;;;;16.77;9.48;;;;;;;;;;5083162;28;20086;-71
2023/09/23 02:27:57;;;;;;;17.45;9.32;;;;;;;;;;5083584;28;20041;-71
2023/09/23 02:30:22;;;;;;;23.00;10.43;;;;;;;;;;5082647;28;20043;-71
2023/09/23 02:32:48;;;;;;;20.50;8.93;;;;;;;;;;5083459;28;20032;-71
2023/09/23 02:35:15;;;;;;;20.38;9.07;;;;;;;;;;5083158;28;20039;-74
2023/09/23 02:37:44;;;;;;;18.30;8.60;;;;;;;;;;5082042;28;20032;-73
2023/09/23 02:40:15;;;;;;;19.55;9.18;;;;;;;;;;5071254;28;20085;-73
2023/09/23 02:42:48;;;;;;;18.52;9.57;;;;;;;;;;5068926;28;20048;-73
2023/09/23 02:45:15;;;;;;;22.08;9.43;;;;;;;;;;5069255;28;20028;-74
2023/09/23 02:47:41;;;;;;;17.63;8.98;;;;;;;;;;5073343;28;20124;-73
2023/09/23 02:50:09;;;;;;;18.65;8.88;;;;;;;;;;5075329;28;20409;-73
2023/09/23 02:52:35;;;;;;;17.33;8.50;;;;;;;;;;5082931;28;20054;-73
2023/09/23 02:55:00;;;;;;;17.33;8.95;;;;;;;;;;5082044;28;20080;-73
2023/09/23 02:57:27;;;;;;;11.90;7.78;;;;;;;;;;5084029;28;20308;-73
2023/09/23 02:59:57;;;;;;;15.68;8.02;;;;;;;;;;5082901;28;20036;-75
2023/09/23 03:02:24;;;;;;;16.58;9.52;;;;;;;;;;5082066;28;20031;-75
2023/09/23 03:04:58;;;;;;;17.85;8.52;;;;;;;;;;5082362;28;20040;-73
2023/09/23 03:07:25;;;;;;;17.02;8.65;;;;;;;;;;5082833;28;20054;-73
2023/09/23 03:09:55;;;;;;;15.75;8.65;;;;;;;;;;5083253;28;20027;-74
2023/09/23 03:12:23;;;;;;;20.58;8.10;;;;;;;;;;5078960;28;20055;-73
2023/09/23 03:14:51;;;;;;;16.83;8.57;;;;;;;;;;5075835;28;20060;-72
2023/09/23 03:17:21;;;;;;;15.33;8.73;;;;;;;;;;5081662;28;20031;-73
2023/09/23 03:19:50;;;;;;;18.02;8.35;;;;;;;;;;5082519;28;20248;-72
2023/09/23 03:22:16;;;;;;;19.95;8.88;;;;;;;;;;5082130;28;20051;-74
2023/09/23 03:24:41;;;;;;;19.70;8.95;;;;;;;;;;5080422;28;20372;-73
2023/09/23 03:27:06;;;;;;;13.40;8.38;;;;;;;;;;5074305;28;20355;-73
2023/09/23 03:29:32;;;;;;;19.58;8.35;;;;;;;;;;5083057;28;20028;-74
2023/09/23 03:31:58;;;;;;;15.18;9.10;;;;;;;;;;5073038;28;20340;-74
2023/09/23 03:34:25;;;;;;;17.98;8.43;;;;;;;;;;5067512;28;21138;-73
2023/09/23 03:36:54;;;;;;;12.60;8.88;;;;;;;;;;5074929;28;20024;-73
2023/09/23 03:39:20;;;;;;;16.95;9.05;;;;;;;;;;5071855;28;20669;-73
2023/09/23 03:41:46;;;;;;;20.25;9.20;;;;;;;;;;5081246;28;20048;-73
2023/09/23 03:44:15;;;;;;;18.90;8.80;;;;;;;;;;5084140;28;20050;-74
2023/09/23 03:46:47;;;;;;;15.68;9.40;;;;;;;;;;5082732;28;20054;-75
2023/09/23 03:49:12;;;;;;;17.20;8.55;;;;;;;;;;5082074;28;20518;-72
2023/09/23 03:51:38;;;;;;;18.23;9.00;;;;;;;;;;5080048;28;20161;-73
2023/09/23 03:54:04;;;;;;;19.40;9.38;;;;;;;;;;5071188;28;20035;-73
2023/09/23 03:56:33;;;;;;;15.38;9.27;;;;;;;;;;5082334;28;20020;-74
2023/09/23 03:58:59;;;;;;;20.90;8.80;;;;;;;;;;5083368;28;20027;-74
2023/09/23 04:01:25;;;;;;;19.90;9.18;;;;;;;;;;5082801;28;20106;-74
2023/09/23 04:03:53;;;;;;;19.67;9.00;;;;;;;;;;5080261;28;20465;-76
2023/09/23 04:06:19;;;;;;;19.27;9.05;;;;;;;;;;5082316;28;20028;-74
2023/09/23 04:08:44;;;;;;;24.45;9.55;;;;;;;;;;5070536;28;20053;-75
2023/09/23 04:11:10;;;;;;;15.90;8.32;;;;;;;;;;5081588;28;20028;-73
2023/09/23 04:13:36;;;;;;;16.77;8.98;;;;;;;;;;5082949;28;20023;-74
2023/09/23 04:16:02;;;;;;;16.00;8.52;;;;;;;;;;5082399;28;20034;-73
2023/09/23 04:34:36;;;;;;;16.67;10.35;;;;;;;;;;5140528;27;20110;-77
2023/09/23 04:37:04;;;;;;;18.35;10.88;;;;;;;;;;5134050;27;20039;-75
2023/09/23 04:39:30;;;;;;;18.30;9.93;;;;;;;;;;5134757;27;20092;-75
2023/09/23 04:41:56;;;;;;;17.60;10.27;;;;;;;;;;5123338;27;20081;-77
2023/09/23 04:44:21;;;;;;;18.05;10.73;;;;;;;;;;5121832;27;20663;-77
2023/09/23 04:46:47;;;;;;;13.18;9.55;;;;;;;;;;5125920;27;20027;-74
2023/09/23 04:49:12;;;;;;;15.38;10.05;;;;;;;;;;5132012;27;20369;-75
2023/09/23 04:51:38;;;;;;;12.88;9.40;;;;;;;;;;5133787;27;20126;-74
2023/09/23 04:54:03;;;;;;;12.73;9.55;;;;;;;;;;5131899;27;20102;-76
2023/09/23 04:56:29;;;;;;;15.30;9.68;;;;;;;;;;5135744;27;20337;-74
2023/09/23 04:58:58;;;;;;;13.20;9.57;;;;;;;;;;5133716;27;20042;-74
2023/09/23 05:01:24;;;;;;;14.35;9.40;;;;;;;;;;5127640;27;20080;-74
2023/09/23 05:03:51;;;;;;;18.55;9.80;;;;;;;;;;5127518;27;20073;-73
2023/09/23 05:06:17;;;;;;;16.50;9.82;;;;;;;;;;5130506;27;20084;-75
2023/09/23 05:08:43;;;;;;;18.13;9.43;;;;;;;;;;5132803;27;20023;-74
2023/09/23 05:11:11;;;;;;;22.00;9.35;;;;;;;;;;5131667;27;20047;-75
2023/09/23 05:13:37;;;;;;;19.50;9.40;;;;;;;;;;5134543;27;20065;-81
2023/09/23 05:16:03;;;;;;;24.92;10.48;;;;;;;;;;5126302;27;20047;-79
2023/09/23 05:18:29;;;;;;;22.55;9.23;;;;;;;;;;5128554;27;20034;-74
2023/09/23 05:20:54;;;;;;;20.75;9.63;;;;;;;;;;5132975;27;20584;-73
2023/09/23 05:23:23;;;;;;;21.83;10.48;;;;;;;;;;5132494;27;20535;-74
2023/09/23 05:25:49;;;;;;;17.17;10.27;;;;;;;;;;5124420;27;20088;-80
2023/09/23 05:28:14;;;;;;;17.40;9.50;;;;;;;;;;5119688;27;20038;-75
2023/09/23 05:30:40;;;;;;;17.33;9.80;;;;;;;;;;5121820;27;20023;-76
2023/09/23 05:33:05;;;;;;;18.45;10.05;;;;;;;;;;5119710;27;20654;-78
2023/09/23 05:35:30;;;;;;;20.42;10.20;;;;;;;;;;5108148;27;20023;-77
2023/09/23 05:37:56;;;;;;;19.52;10.40;;;;;;;;;;5105344;27;20345;-76
2023/09/23 05:40:27;;;;;;;19.48;9.70;;;;;;;;;;5103777;27;20065;-76
2023/09/23 05:42:56;;;;;;;16.63;10.57;;;;;;;;;;5107588;27;20027;-75
2023/09/23 05:45:24;;;;;;;23.03;11.57;;;;;;;;;;5119543;27;20030;-77
2023/09/23 05:47:50;;;;;;;19.20;10.73;;;;;;;;;;5120217;27;20331;-75
2023/09/23 05:50:17;;;;;;;22.08;11.75;;;;;;;;;;5118779;27;20026;-74
2023/09/23 05:52:45;;;;;;;18.83;12.10;;;;;;;;;;5105215;27;20456;-74
2023/09/23 05:55:11;;;;;;;21.90;11.65;;;;;;;;;;5113544;27;20027;-74
2023/09/23 05:57:38;;;;;;;17.73;10.98;;;;;;;;;;5104494;27;20389;-74
2023/09/23 06:00:05;;;;;;;18.70;12.75;;;;;;;;;;5114732;27;20133;-77
2023/09/23 06:02:31;;;;;;;20.98;12.90;;;;;;;;;;5104509;27;20031;-74
2023/09/23 06:04:56;;;;;;;24.15;17.23;;;;;;;;;;5103096;27;20029;-74
2023/09/23 06:07:21;;;;;;;21.45;13.10;;;;;;;;;;5106285;27;20034;-74
2023/09/23 06:09:47;;;;;;;22.73;13.20;;;;;;;;;;5110698;27;20019;-76
2023/09/23 06:12:12;;;;;;;20.85;12.10;;;;;;;;;;5114909;27;20482;-72
2023/09/23 06:14:37;;;;;;;20.55;12.75;;;;;;;;;;5105649;27;20019;-77
2023/09/23 06:17:03;;;;;;;19.58;11.88;;;;;;;;;;5106152;27;20018;-72
2023/09/23 06:19:28;;;;;;;16.05;10.65;;;;;;;;;;5117236;27;20023;-76
2023/09/23 06:21:54;;;;;;;19.20;11.68;;;;;;;;;;5112012;27;20031;-72
2023/09/23 06:24:19;;;;;;;14.77;11.27;;;;;;;;;;5101181;27;20016;-76
2023/09/23 06:26:45;;;;;;;13.40;10.63;;;;;;;;;;5108610;27;20031;-72
2023/09/23 06:29:14;;;;;;;15.35;8.55;;;;;;;;;;5115516;27;20128;-73
2023/09/23 06:31:39;;;;;;;14.70;9.93;;;;;;;;;;5112495;27;20072;-75
2023/09/23 06:34:06;;;;;;;17.00;10.57;;;;;;;;;;5107566;27;20050;-76
2023/09/23 06:36:31;;;;;;;15.45;8.05;;;;;;;;;;5117026;27;20118;-74
2023/09/23 06:38:56;;;;;;;16.77;9.23;;;;;;;;;;5111284;27;20439;-72
2023/09/23 06:41:22;;;;;;;17.98;9.73;;;;;;;;;;5095052;27;20049;-73
2023/09/23 06:43:47;;;;;;;16.33;9.93;;;;;;;;;;5116448;27;20035;-73
2023/09/23 06:46:12;;;;;;;16.83;10.02;;;;;;;;;;5114066;27;20027;-72
2023/09/23 06:48:38;;;;;;;14.82;10.93;;;;;;;;;;5116200;27;20062;-76
2023/09/23 06:51:03;;;;;;;17.73;9.90;;;;;;;;;;5114895;27;20049;-73
2023/09/23 06:53:29;;;;;;;17.23;10.75;;;;;;;;;;5113426;27;20027;-72
2023/09/23 06:55:55;;;;;;;13.30;9.73;;;;;;;;;;5113710;27;20580;-74
2023/09/23 06:58:20;;;;;;;15.23;9.15;;;;;;;;;;5114186;27;20106;-72
2023/09/23 07:00:45;;;;;;;18.20;10.20;;;;;;;;;;5116026;27;20028;-72
2023/09/23 07:03:11;;;;;;;15.60;9.90;;;;;;;;;;5116740;27;20031;-72
2023/09/23 07:05:37;;;;;;;15.13;10.63;;;;;;;;;;5114138;27;20336;-73
2023/09/23 07:08:02;;;;;;;13.93;8.90;;;;;;;;;;5117054;27;20034;-74
2023/09/23 07:10:28;;;;;;;16.25;9.25;;;;;;;;;;5115759;27;20038;-75
2023/09/23 07:12:53;;;;;;;20.95;8.95;;;;;;;;;;5114266;27;20974;-73
2023/09/23 07:15:18;;;;;;;17.17;7.45;;;;;;;;;;5117444;27;20353;-72
2023/09/23 07:17:44;;;;;;;16.73;7.63;;;;;;;;;;5114138;27;20031;-72
2023/09/23 07:20:09;;;;;;;12.93;7.65;;;;;;;;;;5117843;27;20099;-73
2023/09/23 07:22:35;;;;;;;13.88;7.63;;;;;;;;;;5113827;27;20027;-73
2023/09/23 07:25:00;;;;;;;16.70;6.80;;;;;;;;;;5113194;27;20482;-72
2023/09/23 07:27:26;;;;;;;10.68;6.68;;;;;;;;;;5110886;27;20077;-75
2023/09/23 07:29:51;;;;;;;16.15;6.75;;;;;;;;;;5118040;27;20078;-73
2023/09/23 07:32:17;;;;;;;12.68;6.82;;;;;;;;;;5117443;27;20019;-76
2023/09/23 07:34:42;;;;;;;14.90;9.20;;;;;;;;;;5115027;27;20429;-72
2023/09/23 07:37:08;;;;;;;15.23;7.93;;;;;;;;;;5114341;27;20354;-72
2023/09/23 07:39:34;;;;;;;13.07;8.02;;;;;;;;;;5117344;27;20027;-72
2023/09/23 07:41:59;;;;;;;16.08;7.78;;;;;;;;;;5114977;27;20079;-71
2023/09/23 07:44:24;;;;;;;14.48;7.95;;;;;;;;;;5116504;27;20062;-72
2023/09/23 07:46:50;;;;;;;17.40;7.65;;;;;;;;;;5115515;27;20058;-75
2023/09/23 07:49:15;;;;;;;16.98;7.78;;;;;;;;;;5116706;27;20061;-73
2023/09/23 07:51:40;;;;;;;16.50;7.07;;;;;;;;;;5117920;27;20034;-72
2023/09/23 07:54:06;;;;;;;18.40;7.40;;;;;;;;;;5115316;27;20028;-74
2023/09/23 07:56:31;;;;;;;10.43;6.32;;;;;;;;;;5117897;27;20031;-72
2023/09/23 07:58:57;;;;;;;18.67;7.63;;;;;;;;;;5115638;27;20011;-72
2023/09/23 08:01:22;;;;;;;20.13;6.38;;;;;;;;;;5117554;27;20136;-72
2023/09/23 08:03:47;;;;;;;19.05;6.68;;;;;;;;;;5116515;27;20383;-71
2023/09/23 08:06:13;;;;;;;8.55;5.63;;;;;;;;;;5116369;27;20069;-72
2023/09/23 08:08:38;;;;;;;14.68;7.20;;;;;;;;;;5115077;27;20056;-72
2023/09/23 08:11:03;;;;;;;13.85;6.18;;;;;;;;;;5114526;27;20121;-72
2023/09/23 08:13:29;;;;;;;15.15;6.43;;;;;;;;;;5116784;27;20144;-73
2023/09/23 08:15:57;;;;;;;11.20;6.22;;;;;;;;;;5117184;27;20055;-72
2023/09/23 08:18:23;;;;;;;17.88;6.75;;;;;;;;;;5116612;27;20091;-75
2023/09/23 08:20:54;;;;;;;14.80;6.57;;;;;;;;;;5116204;28;20028;-72
2023/09/23 08:23:19;;;;;;;12.23;6.53;;;;;;;;;;5116862;27;20027;-72
2023/09/23 08:25:45;;;;;;;17.00;5.95;;;;;;;;;;5114879;27;20038;-75
2023/09/23 08:28:13;;;;;;;10.35;5.22;;;;;;;;;;5117244;28;20023;-75
2023/09/23 08:30:39;;;;;;;14.65;6.43;;;;;;;;;;5114508;27;20457;-72
2023/09/23 08:33:05;;;;;;;10.52;5.70;;;;;;;;;;5116566;27;20047;-72
2023/09/23 08:35:31;;;;;;;14.80;7.22;;;;;;;;;;5116967;27;20031;-72
2023/09/23 08:37:56;;;;;;;15.27;6.13;;;;;;;;;;5116248;28;20441;-73
2023/09/23 08:40:22;;;;;;;15.35;6.20;;;;;;;;;;5117926;27;20030;-72
2023/09/23 08:42:52;;;;;;;15.27;6.75;;;;;;;;;;5115756;27;20539;-72
2023/09/23 08:45:20;;;;;;;15.73;6.50;;;;;;;;;;5114630;28;20311;-73
2023/09/23 08:47:45;;;;;;;13.18;7.28;;;;;;;;;;5113770;27;20330;-73
2023/09/23 08:50:12;;;;;;;13.82;5.45;;;;;;;;;;5106798;28;20026;-78
2023/09/23 08:52:37;;;;;;;16.98;6.93;;;;;;;;;;5103159;27;20042;-80
2023/09/23 08:55:07;;;;;;;17.42;7.13;;;;;;;;;;5101777;28;20019;-76
2023/09/23 08:57:33;;;;;;;11.60;5.65;;;;;;;;;;5094761;28;20051;-79
2023/09/23 08:59:58;;;;;;;13.07;6.03;;;;;;;;;;5092012;27;20402;-79
2023/09/23 09:02:29;;;;;;;15.18;5.78;;;;;;;;;;5092985;27;20036;-78
2023/09/23 09:04:55;;;;;;;18.48;5.53;;;;;;;;;;5091857;28;20080;-78
2023/09/23 09:07:33;;;;;;;13.88;7.35;;;;;;;;;;5092422;28;20032;-78
2023/09/23 09:09:58;;;;;;;12.93;6.93;;;;;;;;;;5100690;27;20031;-78
2023/09/23 09:12:23;;;;;;;10.07;5.70;;;;;;;;;;5101826;27;20323;-79
2023/09/23 09:14:52;;;;;;;13.77;6.03;;;;;;;;;;5099625;27;20039;-79
2023/09/23 09:17:18;;;;;;;14.27;6.15;;;;;;;;;;5098544;27;20035;-78
2023/09/23 09:19:43;;;;;;;17.67;7.45;;;;;;;;;;5098589;27;20698;-78
2023/09/23 09:22:09;;;;;;;20.42;7.00;;;;;;;;;;5102823;27;20020;-78
2023/09/23 09:24:34;;;;;;;23.85;6.40;;;;;;;;;;5119837;27;20027;-78
2023/09/23 09:27:00;;;;;;;13.13;6.28;;;;;;;;;;5120955;27;20080;-77
2023/09/23 09:29:25;;;;;;;15.57;6.50;;;;;;;;;;5121604;27;20038;-76
2023/09/23 09:31:52;;;;;;;16.65;7.35;;;;;;;;;;5117949;27;21073;-80
2023/09/23 09:34:23;;;;;;;15.77;6.47;;;;;;;;;;5110853;27;20051;-77
2023/09/23 09:36:52;;;;;;;17.40;6.25;;;;;;;;;;5107905;27;20122;-77
2023/09/23 09:39:20;;;;;;;16.75;6.32;;;;;;;;;;5109510;27;20031;-79
2023/09/23 09:41:48;;;;;;;14.32;6.70;;;;;;;;;;5103725;27;20015;-80
2023/09/23 09:44:15;;;;;;;18.08;5.70;;;;;;;;;;5097142;27;20043;-78
2023/09/23 09:46:42;;;;;;;17.88;6.45;;;;;;;;;;5105407;27;20027;-77
2023/09/23 09:49:08;;;;;;;15.23;5.97;;;;;;;;;;5117733;27;20364;-79
2023/09/23 09:51:35;;;;;;;17.35;6.30;;;;;;;;;;5116474;27;20076;-78
2023/09/23 09:54:02;;;;;;;18.90;6.20;;;;;;;;;;5117482;27;20031;-77
2023/09/23 09:56:28;;;;;;;18.90;6.35;;;;;;;;;;5118760;27;20422;-78
2023/09/23 09:58:56;;;;;;;19.70;5.85;;;;;;;;;;5118921;27;20073;-78
2023/09/23 10:01:22;;;;;;;16.83;5.88;;;;;;;;;;5118726;27;20053;-76
2023/09/23 10:03:50;;;;;;;26.65;6.55;;;;;;;;;;5117652;27;20035;-79
2023/09/23 10:06:18;;;;;;;16.33;5.88;;;;;;;;;;5119616;27;20045;-78
2023/09/23 10:08:46;;;;;;;;;;;;;;;;;;5117164;27;20396;-78
2023/09/23 10:11:13;;;;;;;22.43;6.60;;;;;;;;;;5118989;27;19912;-76
2023/09/23 10:13:38;;;;;;;18.42;6.82;;;;;;;;;;5121338;27;20050;-79
2023/09/23 10:16:04;;;;;;;22.30;6.13;;;;;;;;;;5118919;27;20023;-79
2023/09/23 10:18:34;;;;;;;20.15;6.50;;;;;;;;;;5118268;27;20019;-77
2023/09/23 10:21:02;;;;;;;18.02;5.93;;;;;;;;;;5115145;27;20031;-80
2023/09/23 10:23:27;;;;;;;24.40;6.45;;;;;;;;;;5118302;27;20058;-77
2023/09/23 10:25:52;;;;;;;17.23;6.40;;;;;;;;;;5120182;27;20073;-79
2023/09/23 10:28:22;;;;;;;19.55;7.35;;;;;;;;;;5117945;27;20019;-78
2023/09/23 10:31:01;;;;;;;18.30;6.97;;;;;;;;;;5120069;27;20026;-77
2023/09/23 10:33:27;;;;;;;16.88;6.80;;;;;;;;;;5119370;27;20138;-80
2023/09/23 10:35:56;;;;;;;17.90;6.30;;;;;;;;;;5116212;27;20016;-78
2023/09/23 10:38:26;;;;;;;20.05;6.80;;;;;;;;;;5117988;27;20038;-78
2023/09/23 10:40:52;;;;;;;22.15;6.50;;;;;;;;;;5119957;27;20477;-77
2023/09/23 10:43:17;;;;;;;17.85;6.07;;;;;;;;;;5119374;27;20031;-78
2023/09/23 10:45:43;;;;;;;22.08;6.50;;;;;;;;;;5118225;27;20423;-78
2023/09/23 10:48:09;;;;;;;17.95;6.65;;;;;;;;;;5117955;27;20027;-78
2023/09/23 10:50:34;;;;;;;19.67;7.05;;;;;;;;;;5118788;27;20030;-76
2023/09/23 10:53:00;;;;;;;29.85;8.20;;;;;;;;;;5119219;27;20080;-78
2023/09/23 10:55:25;;;;;;;19.42;6.72;;;;;;;;;;5117173;27;20029;-78
2023/09/23 10:57:51;;;;;;;21.05;7.10;;;;;;;;;;5118226;27;20040;-77
2023/09/23 11:00:21;;;;;;;21.85;6.88;;;;;;;;;;5117185;27;20786;-77
2023/09/23 11:02:52;;;;;;;26.25;6.93;;;;;;;;;;5112928;27;20039;-77
2023/09/23 11:05:21;;;;;;;30.15;7.72;;;;;;;;;;5117828;27;20437;-77
2023/09/23 11:07:47;;;;;;;26.67;6.97;;;;;;;;;;5116332;27;20040;-79
2023/09/23 11:10:12;;;;;;;30.42;7.00;;;;;;;;;;5118770;27;20027;-76
2023/09/23 11:12:41;;;;;;;25.85;6.45;;;;;;;;;;5108126;27;20056;-77
2023/09/23 11:15:07;;;;;;;38.75;8.13;;;;;;;;;;5118961;27;20407;-76
2023/09/23 11:17:34;;;;;;;35.35;7.68;;;;;;;;;;5117114;27;20084;-78
2023/09/23 11:20:00;;;;;;;31.98;7.63;;;;;;;;;;5092917;27;20036;-79
2023/09/23 11:22:29;;;;;;;26.42;7.28;;;;;;;;;;5092539;27;20407;-75
2023/09/23 11:24:55;;;;;;;25.17;6.85;;;;;;;;;;5101684;27;20042;-73
2023/09/23 11:27:21;;;;;;;30.08;8.30;;;;;;;;;;5101276;27;20043;-74
2023/09/23 11:29:47;;;;;;;34.55;7.85;;;;;;;;;;5094909;27;20350;-78
2023/09/23 11:32:12;;;;;;;36.63;7.30;;;;;;;;;;5092661;27;20034;-77
2023/09/23 11:34:37;;;;;;;33.72;8.15;;;;;;;;;;5095384;27;20031;-75
2023/09/23 11:37:03;;;;;;;37.67;8.00;;;;;;;;;;5115953;27;20023;-74
2023/09/23 11:39:35;;;;;;;33.13;7.18;;;;;;;;;;5113871;27;20028;-75
2023/09/23 11:42:03;;;;;;;25.65;6.70;;;;;;;;;;5096999;27;20067;-72
2023/09/23 11:44:29;;;;;;;27.95;7.63;;;;;;;;;;5112169;27;20125;-76
2023/09/23 11:46:54;;;;;;;34.45;8.30;;;;;;;;;;5097179;27;20458;-76
2023/09/23 11:49:20;;;;;;;33.80;8.05;;;;;;;;;;5087502;27;20020;-75
2023/09/23 11:51:45;;;;;;;26.75;7.82;;;;;;;;;;5087856;27;20080;-75
2023/09/23 11:54:11;;;;;;;30.35;7.05;;;;;;;;;;5091741;27;20341;-77
2023/09/23 11:56:36;;;;;;;29.23;6.85;;;;;;;;;;5091192;27;20064;-74
2023/09/23 11:59:01;;;;;;;34.53;9.93;;;;;;;;;;5089842;27;20082;-74
2023/09/23 12:01:28;;;;;;;33.53;7.95;;;;;;;;;;5089777;27;20299;-77
2023/09/23 12:03:58;;;;;;;29.63;7.65;;;;;;;;;;5094960;27;20688;-73
2023/09/23 12:06:23;;;;;;;31.65;7.95;;;;;;;;;;5092683;27;20371;-74
2023/09/23 12:08:49;;;;;;;31.92;8.27;;;;;;;;;;5096724;27;20027;-75
2023/09/23 12:11:14;;;;;;;31.33;8.25;;;;;;;;;;5111004;27;20034;-75
2023/09/23 12:13:39;;;;;;;41.65;11.02;;;;;;;;;;5089969;27;20031;-75
2023/09/23 12:16:05;;;;;;;37.20;8.18;;;;;;;;;;5088979;28;20561;-73
2023/09/23 12:18:30;;;;;;;38.50;9.15;;;;;;;;;;5091299;27;20457;-74
2023/09/23 12:20:55;;;;;;;29.17;7.70;;;;;;;;;;5096246;27;20437;-73
2023/09/23 12:23:21;;;;;;;34.15;7.90;;;;;;;;;;5100265;27;20362;-74
2023/09/23 12:25:46;;;;;;;46.75;9.00;;;;;;;;;;5101232;28;21036;-76
2023/09/23 12:28:11;;;;;;;36.30;8.48;;;;;;;;;;5098027;28;20141;-75
2023/09/23 12:30:37;;;;;;;31.25;8.38;;;;;;;;;;5090407;27;20035;-75
2023/09/23 12:33:02;;;;;;;33.38;8.27;;;;;;;;;;5090627;28;20059;-75
2023/09/23 12:35:27;;;;;;;33.47;8.07;;;;;;;;;;5088939;28;20023;-75
2023/09/23 12:37:54;;;;;;;34.03;9.27;;;;;;;;;;5097235;27;20420;-74
2023/09/23 12:40:19;;;;;;;32.75;9.05;;;;;;;;;;5104992;27;20016;-74
2023/09/23 12:42:45;;;;;;;34.08;8.43;;;;;;;;;;5114784;27;20096;-78
2023/09/23 12:45:11;;;;;;;36.88;8.27;;;;;;;;;;5104347;27;20341;-74
2023/09/23 12:47:37;;;;;;;40.65;9.23;;;;;;;;;;5093848;27;20391;-74
2023/09/23 12:50:03;;;;;;;36.25;8.23;;;;;;;;;;5096591;27;20374;-76
2023/09/23 12:52:28;;;;;;;39.38;8.23;;;;;;;;;;5099782;27;20035;-75
2023/09/23 12:54:54;;;;;;;34.80;8.55;;;;;;;;;;5115074;27;20027;-74
2023/09/23 12:57:20;;;;;;;35.95;8.75;;;;;;;;;;5105643;27;20054;-74
2023/09/23 12:59:45;;;;;;;30.77;7.85;;;;;;;;;;5118798;27;20395;-75
2023/09/23 13:02:11;;;;;;;27.83;7.97;;;;;;;;;;5119459;27;20377;-75
2023/09/23 13:04:37;;;;;;;23.88;7.85;;;;;;;;;;5119925;27;20032;-75
2023/09/23 13:07:03;;;;;;;17.88;7.28;;;;;;;;;;5118177;27;20041;-75
2023/09/23 13:09:28;;;;;;;17.73;7.18;;;;;;;;;;5121034;27;20102;-74
2023/09/23 13:11:54;;;;;;;15.25;6.47;;;;;;;;;;5121005;27;20057;-75
2023/09/23 13:14:21;;;;;;;20.40;6.80;;;;;;;;;;5118436;27;20035;-74
2023/09/23 13:16:46;;;;;;;22.13;7.17;;;;;;;;;;5120563;27;20023;-76
2023/09/23 13:19:12;;;;;;;23.58;11.48;;;;;;;;;;5116709;27;20710;-74
2023/09/23 13:21:37;;;;;;;28.23;14.23;;;;;;;;;;5095423;27;20457;-74
2023/09/23 13:24:04;;;;;;;26.58;15.55;;;;;;;;;;5091745;27;20461;-75
2023/09/23 13:26:30;;;;;;;23.67;9.13;;;;;;;;;;5097357;27;20030;-76
2023/09/23 13:28:56;;;;;;;25.48;7.03;;;;;;;;;;5098260;27;20425;-77
2023/09/23 13:31:21;;;;;;;18.05;6.30;;;;;;;;;;5093099;27;20480;-74
2023/09/23 13:33:48;;;;;;;19.80;6.72;;;;;;;;;;5093172;27;21036;-75
2023/09/23 13:36:14;;;;;;;22.67;7.22;;;;;;;;;;5094982;27;20027;-74
2023/09/23 13:38:40;;;;;;;30.42;8.50;;;;;;;;;;5094308;27;20020;-75
2023/09/23 13:41:06;;;;;;;21.80;7.88;;;;;;;;;;5097309;27;20384;-77
2023/09/23 13:43:31;;;;;;;25.63;7.57;;;;;;;;;;5091966;27;20031;-75
2023/09/23 13:45:56;;;;;;;16.27;6.65;;;;;;;;;;5104401;27;20748;-75
2023/09/23 13:48:22;;;;;;;18.65;7.43;;;;;;;;;;5118330;27;20028;-75
2023/09/23 13:50:47;;;;;;;21.17;6.60;;;;;;;;;;5116638;27;20027;-75
2023/09/23 13:53:12;;;;;;;24.08;7.07;;;;;;;;;;5105418;27;20065;-74
2023/09/23 13:55:38;;;;;;;19.13;6.95;;;;;;;;;;5118909;27;20023;-76
2023/09/23 13:58:03;;;;;;;20.80;6.95;;;;;;;;;;5116632;27;20036;-76
2023/09/23 14:00:29;;;;;;;19.33;6.80;;;;;;;;;;5115913;27;20019;-73
2023/09/23 14:02:56;;;;;;;22.90;6.80;;;;;;;;;;5108016;27;20027;-74
2023/09/23 14:05:21;;;;;;;28.25;7.20;;;;;;;;;;5116650;27;20092;-74
2023/09/23 14:07:47;;;;;;;22.40;7.22;;;;;;;;;;5116476;27;20434;-75
2023/09/23 14:10:12;;;;;;;17.95;7.10;;;;;;;;;;5144801;27;20040;-73
2023/09/23 14:12:38;;;;;;;15.32;6.88;;;;;;;;;;5103156;27;20104;-75
2023/09/23 14:15:04;;;;;;;18.52;6.70;;;;;;;;;;5105175;27;20075;-73
2023/09/23 14:17:30;;;;;;;18.65;7.03;;;;;;;;;;5101565;27;20102;-75
2023/09/23 14:19:55;;;;;;;20.55;6.90;;;;;;;;;;5102192;27;20486;-76
2023/09/23 14:22:22;;;;;;;21.08;7.32;;;;;;;;;;5104773;27;20026;-76
2023/09/23 14:24:48;;;;;;;18.05;7.97;;;;;;;;;;5102148;27;20026;-73
2023/09/23 14:27:13;;;;;;;16.58;6.88;;;;;;;;;;5100960;27;20031;-76
2023/09/23 14:29:39;;;;;;;18.92;7.18;;;;;;;;;;5104482;27;20034;-75
2023/09/23 14:32:07;;;;;;;18.15;7.30;;;;;;;;;;5102633;27;20028;-76
2023/09/23 14:34:33;;;;;;;22.85;9.10;;;;;;;;;;5103629;27;20059;-76
2023/09/23 14:36:58;;;;;;;21.60;7.97;;;;;;;;;;5104810;27;20076;-74
2023/09/23 14:39:24;;;;;;;18.35;7.13;;;;;;;;;;5103998;27;20034;-76